sensor_id;sensor_type;location;lat;lon;timestamp;P1;durP1;ratioP1;P2;durP2;ratioP2
43311;SDS011;30041;48.300;16.352;2023-08-06T00:00:03;1.17;;;0.30;;
43311;SDS011;30041;48.300;16.352;2023-08-06T00:02:29;2.17;;;0.30;;
43311;SDS011;30041;48.300;16.352;2023-08-06T00:04:55;1.75;;;0.35;;
43311;SDS011;30041;48.300;16.352;2023-08-06T00:07:20;0.95;;;0.20;;
43311;SDS011;30041;48.300;16.352;2023-08-06T00:09:46;1.65;;;0.38;;
43311;SDS011;30041;48.300;16.352;2023-08-06T00:12:11;1.23;;;0.30;;
43311;SDS011;30041;48.300;16.352;2023-08-06T00:14:37;0.60;;;0.30;;
43311;SDS011;30041;48.300;16.352;2023-08-06T00:17:02;0.73;;;0.38;;
43311;SDS011;30041;48.300;16.352;2023-08-06T00:19:28;0.73;;;0.30;;
43311;SDS011;30041;48.300;16.352;2023-08-06T00:21:53;0.95;;;0.17;;
43311;SDS011;30041;48.300;16.352;2023-08-06T00:24:19;0.30;;;0.15;;
43311;SDS011;30041;48.300;16.352;2023-08-06T00:26:44;1.60;;;0.32;;
43311;SDS011;30041;48.300;16.352;2023-08-06T00:29:10;0.40;;;0.30;;
43311;SDS011;30041;48.300;16.352;2023-08-06T00:31:35;1.58;;;0.22;;
43311;SDS011;30041;48.300;16.352;2023-08-06T00:34:01;0.57;;;0.20;;
43311;SDS011;30041;48.300;16.352;2023-08-06T00:36:26;0.52;;;0.30;;
43311;SDS011;30041;48.300;16.352;2023-08-06T00:38:52;0.63;;;0.20;;
43311;SDS011;30041;48.300;16.352;2023-08-06T00:41:17;0.75;;;0.32;;
43311;SDS011;30041;48.300;16.352;2023-08-06T00:43:43;0.98;;;0.30;;
43311;SDS011;30041;48.300;16.352;2023-08-06T00:46:08;0.40;;;0.10;;
43311;SDS011;30041;48.300;16.352;2023-08-06T00:48:34;0.50;;;0.20;;
43311;SDS011;30041;48.300;16.352;2023-08-06T00:51:00;0.43;;;0.20;;
43311;SDS011;30041;48.300;16.352;2023-08-06T00:53:26;0.50;;;0.20;;
43311;SDS011;30041;48.300;16.352;2023-08-06T00:55:52;0.50;;;0.30;;
43311;SDS011;30041;48.300;16.352;2023-08-06T00:58:18;0.20;;;0.10;;
43311;SDS011;30041;48.300;16.352;2023-08-06T01:00:43;0.10;;;0.10;;
43311;SDS011;30041;48.300;16.352;2023-08-06T01:03:09;0.63;;;0.35;;
43311;SDS011;30041;48.300;16.352;2023-08-06T01:05:34;0.65;;;0.30;;
43311;SDS011;30041;48.300;16.352;2023-08-06T01:08:05;0.77;;;0.20;;
43311;SDS011;30041;48.300;16.352;2023-08-06T01:10:41;0.40;;;0.20;;
43311;SDS011;30041;48.300;16.352;2023-08-06T01:16:07;1.15;;;0.20;;
43311;SDS011;30041;48.300;16.352;2023-08-06T01:18:34;0.85;;;0.30;;
43311;SDS011;30041;48.300;16.352;2023-08-06T01:20:59;0.88;;;0.10;;
43311;SDS011;30041;48.300;16.352;2023-08-06T01:23:25;0.20;;;0.10;;
43311;SDS011;30041;48.300;16.352;2023-08-06T01:31:27;2.08;;;0.28;;
43311;SDS011;30041;48.300;16.352;2023-08-06T01:33:58;0.25;;;0.10;;
43311;SDS011;30041;48.300;16.352;2023-08-06T01:36:25;0.25;;;0.10;;
43311;SDS011;30041;48.300;16.352;2023-08-06T01:38:53;0.10;;;0.05;;
43311;SDS011;30041;48.300;16.352;2023-08-06T01:41:18;0.20;;;0.10;;
43311;SDS011;30041;48.300;16.352;2023-08-06T01:43:44;0.30;;;0.10;;
43311;SDS011;30041;48.300;16.352;2023-08-06T01:46:09;0.95;;;0.20;;
43311;SDS011;30041;48.300;16.352;2023-08-06T01:48:35;0.65;;;0.10;;
43311;SDS011;30041;48.300;16.352;2023-08-06T01:51:00;1.48;;;0.20;;
43311;SDS011;30041;48.300;16.352;2023-08-06T01:53:26;0.30;;;0.20;;
43311;SDS011;30041;48.300;16.352;2023-08-06T01:55:51;0.40;;;0.20;;
43311;SDS011;30041;48.300;16.352;2023-08-06T01:58:17;0.90;;;0.17;;
43311;SDS011;30041;48.300;16.352;2023-08-06T02:00:42;0.15;;;0.10;;
43311;SDS011;30041;48.300;16.352;2023-08-06T02:03:08;0.63;;;0.20;;
43311;SDS011;30041;48.300;16.352;2023-08-06T02:05:33;0.55;;;0.10;;
43311;SDS011;30041;48.300;16.352;2023-08-06T02:07:59;0.22;;;0.17;;
43311;SDS011;30041;48.300;16.352;2023-08-06T02:10:24;0.65;;;0.25;;
43311;SDS011;30041;48.300;16.352;2023-08-06T02:12:50;0.20;;;0.10;;
43311;SDS011;30041;48.300;16.352;2023-08-06T02:15:15;0.45;;;0.20;;
43311;SDS011;30041;48.300;16.352;2023-08-06T02:17:41;0.55;;;0.25;;
43311;SDS011;30041;48.300;16.352;2023-08-06T02:20:06;1.02;;;0.20;;
43311;SDS011;30041;48.300;16.352;2023-08-06T02:22:32;0.22;;;0.10;;
43311;SDS011;30041;48.300;16.352;2023-08-06T02:24:58;0.63;;;0.13;;
43311;SDS011;30041;48.300;16.352;2023-08-06T02:27:23;0.32;;;0.15;;
43311;SDS011;30041;48.300;16.352;2023-08-06T02:29:48;0.30;;;0.10;;
43311;SDS011;30041;48.300;16.352;2023-08-06T02:32:14;0.13;;;0.10;;
43311;SDS011;30041;48.300;16.352;2023-08-06T02:34:39;0.28;;;0.10;;
43311;SDS011;30041;48.300;16.352;2023-08-06T02:37:05;0.43;;;0.10;;
43311;SDS011;30041;48.300;16.352;2023-08-06T02:39:30;1.17;;;0.30;;
43311;SDS011;30041;48.300;16.352;2023-08-06T02:41:56;0.28;;;0.20;;
43311;SDS011;30041;48.300;16.352;2023-08-06T02:44:21;0.20;;;0.10;;
43311;SDS011;30041;48.300;16.352;2023-08-06T02:46:47;0.20;;;0.20;;
43311;SDS011;30041;48.300;16.352;2023-08-06T02:49:12;0.40;;;0.10;;
43311;SDS011;30041;48.300;16.352;2023-08-06T02:51:37;0.45;;;0.20;;
43311;SDS011;30041;48.300;16.352;2023-08-06T02:54:03;0.30;;;0.20;;
43311;SDS011;30041;48.300;16.352;2023-08-06T02:56:28;0.10;;;0.10;;
43311;SDS011;30041;48.300;16.352;2023-08-06T02:58:54;0.17;;;0.17;;
43311;SDS011;30041;48.300;16.352;2023-08-06T03:01:19;1.35;;;0.20;;
43311;SDS011;30041;48.300;16.352;2023-08-06T03:03:45;0.95;;;0.35;;
43311;SDS011;30041;48.300;16.352;2023-08-06T03:06:11;0.17;;;0.13;;
43311;SDS011;30041;48.300;16.352;2023-08-06T03:08:36;0.22;;;0.20;;
43311;SDS011;30041;48.300;16.352;2023-08-06T03:11:02;0.65;;;0.20;;
43311;SDS011;30041;48.300;16.352;2023-08-06T03:13:27;0.30;;;0.20;;
43311;SDS011;30041;48.300;16.352;2023-08-06T03:15:53;0.35;;;0.10;;
43311;SDS011;30041;48.300;16.352;2023-08-06T03:18:23;0.50;;;0.20;;
43311;SDS011;30041;48.300;16.352;2023-08-06T03:20:49;0.60;;;0.20;;
43311;SDS011;30041;48.300;16.352;2023-08-06T03:23:14;0.20;;;0.15;;
43311;SDS011;30041;48.300;16.352;2023-08-06T03:25:40;0.35;;;0.20;;
43311;SDS011;30041;48.300;16.352;2023-08-06T03:28:06;0.60;;;0.30;;
43311;SDS011;30041;48.300;16.352;2023-08-06T03:30:31;0.52;;;0.20;;
43311;SDS011;30041;48.300;16.352;2023-08-06T03:32:56;0.40;;;0.30;;
43311;SDS011;30041;48.300;16.352;2023-08-06T03:35:22;0.20;;;0.20;;
43311;SDS011;30041;48.300;16.352;2023-08-06T03:37:47;0.30;;;0.15;;
43311;SDS011;30041;48.300;16.352;2023-08-06T03:40:13;0.30;;;0.22;;
43311;SDS011;30041;48.300;16.352;2023-08-06T03:42:39;0.52;;;0.20;;
43311;SDS011;30041;48.300;16.352;2023-08-06T03:45:04;0.45;;;0.28;;
43311;SDS011;30041;48.300;16.352;2023-08-06T03:47:30;0.40;;;0.30;;
43311;SDS011;30041;48.300;16.352;2023-08-06T03:49:56;0.57;;;0.30;;
43311;SDS011;30041;48.300;16.352;2023-08-06T03:52:21;0.93;;;0.30;;
43311;SDS011;30041;48.300;16.352;2023-08-06T03:54:47;0.40;;;0.20;;
43311;SDS011;30041;48.300;16.352;2023-08-06T03:57:12;0.52;;;0.30;;
43311;SDS011;30041;48.300;16.352;2023-08-06T03:59:37;0.85;;;0.43;;
43311;SDS011;30041;48.300;16.352;2023-08-06T04:02:03;0.47;;;0.30;;
43311;SDS011;30041;48.300;16.352;2023-08-06T04:04:28;1.48;;;0.40;;
43311;SDS011;30041;48.300;16.352;2023-08-06T04:06:54;0.50;;;0.30;;
43311;SDS011;30041;48.300;16.352;2023-08-06T04:09:19;0.47;;;0.43;;
43311;SDS011;30041;48.300;16.352;2023-08-06T04:11:45;0.73;;;0.35;;
43311;SDS011;30041;48.300;16.352;2023-08-06T04:14:11;0.47;;;0.20;;
43311;SDS011;30041;48.300;16.352;2023-08-06T04:16:36;0.77;;;0.30;;
43311;SDS011;30041;48.300;16.352;2023-08-06T04:19:01;0.80;;;0.47;;
43311;SDS011;30041;48.300;16.352;2023-08-06T04:21:27;0.35;;;0.30;;
43311;SDS011;30041;48.300;16.352;2023-08-06T04:23:52;0.73;;;0.50;;
43311;SDS011;30041;48.300;16.352;2023-08-06T04:26:18;0.60;;;0.40;;
43311;SDS011;30041;48.300;16.352;2023-08-06T04:28:43;0.50;;;0.40;;
43311;SDS011;30041;48.300;16.352;2023-08-06T04:31:09;0.85;;;0.50;;
43311;SDS011;30041;48.300;16.352;2023-08-06T04:33:34;1.13;;;0.38;;
43311;SDS011;30041;48.300;16.352;2023-08-06T04:36:02;0.60;;;0.30;;
43311;SDS011;30041;48.300;16.352;2023-08-06T04:38:28;0.50;;;0.40;;
43311;SDS011;30041;48.300;16.352;2023-08-06T04:40:54;0.85;;;0.47;;
43311;SDS011;30041;48.300;16.352;2023-08-06T04:43:19;0.57;;;0.40;;
43311;SDS011;30041;48.300;16.352;2023-08-06T04:45:50;0.95;;;0.52;;
43311;SDS011;30041;48.300;16.352;2023-08-06T04:48:18;0.45;;;0.43;;
43311;SDS011;30041;48.300;16.352;2023-08-06T04:50:44;0.70;;;0.47;;
43311;SDS011;30041;48.300;16.352;2023-08-06T04:53:13;0.93;;;0.52;;
43311;SDS011;30041;48.300;16.352;2023-08-06T04:55:39;0.80;;;0.52;;
43311;SDS011;30041;48.300;16.352;2023-08-06T04:58:04;1.10;;;0.68;;
43311;SDS011;30041;48.300;16.352;2023-08-06T05:00:30;1.10;;;0.50;;
43311;SDS011;30041;48.300;16.352;2023-08-06T05:02:56;0.77;;;0.60;;
43311;SDS011;30041;48.300;16.352;2023-08-06T05:05:22;0.38;;;0.38;;
43311;SDS011;30041;48.300;16.352;2023-08-06T05:07:49;0.57;;;0.38;;
43311;SDS011;30041;48.300;16.352;2023-08-06T05:10:14;0.85;;;0.68;;
43311;SDS011;30041;48.300;16.352;2023-08-06T05:12:43;1.02;;;0.47;;
43311;SDS011;30041;48.300;16.352;2023-08-06T05:15:08;0.93;;;0.50;;
43311;SDS011;30041;48.300;16.352;2023-08-06T05:17:34;0.70;;;0.32;;
43311;SDS011;30041;48.300;16.352;2023-08-06T05:19:59;0.55;;;0.40;;
43311;SDS011;30041;48.300;16.352;2023-08-06T05:22:25;1.13;;;0.65;;
43311;SDS011;30041;48.300;16.352;2023-08-06T05:24:51;0.35;;;0.35;;
43311;SDS011;30041;48.300;16.352;2023-08-06T05:27:16;0.73;;;0.50;;
43311;SDS011;30041;48.300;16.352;2023-08-06T05:29:42;0.40;;;0.40;;
43311;SDS011;30041;48.300;16.352;2023-08-06T05:32:07;1.13;;;0.65;;
43311;SDS011;30041;48.300;16.352;2023-08-06T05:34:32;0.75;;;0.63;;
43311;SDS011;30041;48.300;16.352;2023-08-06T05:36:58;0.73;;;0.60;;
43311;SDS011;30041;48.300;16.352;2023-08-06T05:39:23;1.10;;;0.60;;
43311;SDS011;30041;48.300;16.352;2023-08-06T05:41:49;0.63;;;0.50;;
43311;SDS011;30041;48.300;16.352;2023-08-06T05:44:14;0.50;;;0.50;;
43311;SDS011;30041;48.300;16.352;2023-08-06T05:46:40;1.00;;;0.60;;
43311;SDS011;30041;48.300;16.352;2023-08-06T05:49:05;1.55;;;0.63;;
43311;SDS011;30041;48.300;16.352;2023-08-06T05:51:31;1.08;;;0.55;;
43311;SDS011;30041;48.300;16.352;2023-08-06T05:53:56;1.52;;;0.80;;
43311;SDS011;30041;48.300;16.352;2023-08-06T05:56:22;4.75;;;0.80;;
43311;SDS011;30041;48.300;16.352;2023-08-06T05:58:47;3.00;;;0.75;;
43311;SDS011;30041;48.300;16.352;2023-08-06T06:01:13;0.93;;;0.50;;
43311;SDS011;30041;48.300;16.352;2023-08-06T06:03:38;3.92;;;0.77;;
43311;SDS011;30041;48.300;16.352;2023-08-06T06:06:04;1.48;;;0.80;;
43311;SDS011;30041;48.300;16.352;2023-08-06T06:08:29;2.05;;;0.90;;
43311;SDS011;30041;48.300;16.352;2023-08-06T06:10:55;10.23;;;1.00;;
43311;SDS011;30041;48.300;16.352;2023-08-06T06:13:20;2.75;;;1.00;;
43311;SDS011;30041;48.300;16.352;2023-08-06T06:15:46;2.45;;;0.80;;
43311;SDS011;30041;48.300;16.352;2023-08-06T06:18:13;2.38;;;0.90;;
43311;SDS011;30041;48.300;16.352;2023-08-06T06:20:38;2.75;;;0.90;;
43311;SDS011;30041;48.300;16.352;2023-08-06T06:23:04;2.28;;;0.73;;
43311;SDS011;30041;48.300;16.352;2023-08-06T06:25:29;1.42;;;0.82;;
43311;SDS011;30041;48.300;16.352;2023-08-06T06:27:55;5.90;;;0.82;;
43311;SDS011;30041;48.300;16.352;2023-08-06T06:30:20;1.67;;;0.80;;
43311;SDS011;30041;48.300;16.352;2023-08-06T06:32:46;1.95;;;0.82;;
43311;SDS011;30041;48.300;16.352;2023-08-06T06:35:11;2.83;;;1.23;;
43311;SDS011;30041;48.300;16.352;2023-08-06T06:37:37;1.77;;;0.77;;
43311;SDS011;30041;48.300;16.352;2023-08-06T06:40:03;2.13;;;0.90;;
43311;SDS011;30041;48.300;16.352;2023-08-06T06:42:29;2.08;;;0.93;;
43311;SDS011;30041;48.300;16.352;2023-08-06T06:44:54;1.70;;;1.00;;
43311;SDS011;30041;48.300;16.352;2023-08-06T06:47:20;3.28;;;1.00;;
43311;SDS011;30041;48.300;16.352;2023-08-06T06:49:45;4.97;;;1.10;;
43311;SDS011;30041;48.300;16.352;2023-08-06T06:52:11;3.25;;;1.15;;
43311;SDS011;30041;48.300;16.352;2023-08-06T06:54:36;1.98;;;1.13;;
43311;SDS011;30041;48.300;16.352;2023-08-06T06:57:02;2.25;;;1.17;;
43311;SDS011;30041;48.300;16.352;2023-08-06T06:59:27;1.52;;;0.80;;
43311;SDS011;30041;48.300;16.352;2023-08-06T07:01:53;3.08;;;1.20;;
43311;SDS011;30041;48.300;16.352;2023-08-06T07:04:19;1.05;;;0.85;;
43311;SDS011;30041;48.300;16.352;2023-08-06T07:06:44;2.70;;;1.48;;
43311;SDS011;30041;48.300;16.352;2023-08-06T07:09:09;1.67;;;1.08;;
43311;SDS011;30041;48.300;16.352;2023-08-06T07:11:35;4.35;;;1.20;;
43311;SDS011;30041;48.300;16.352;2023-08-06T07:14:00;1.73;;;0.93;;
43311;SDS011;30041;48.300;16.352;2023-08-06T07:16:26;4.25;;;1.10;;
43311;SDS011;30041;48.300;16.352;2023-08-06T07:18:52;4.32;;;0.70;;
43311;SDS011;30041;48.300;16.352;2023-08-06T07:21:18;2.78;;;0.85;;
43311;SDS011;30041;48.300;16.352;2023-08-06T07:23:43;5.90;;;1.00;;
43311;SDS011;30041;48.300;16.352;2023-08-06T07:26:09;2.22;;;1.00;;
43311;SDS011;30041;48.300;16.352;2023-08-06T07:28:34;2.28;;;1.10;;
43311;SDS011;30041;48.300;16.352;2023-08-06T07:31:00;4.18;;;1.10;;
43311;SDS011;30041;48.300;16.352;2023-08-06T07:33:27;6.47;;;1.40;;
43311;SDS011;30041;48.300;16.352;2023-08-06T07:35:53;2.35;;;1.10;;
43311;SDS011;30041;48.300;16.352;2023-08-06T07:38:18;4.00;;;1.10;;
43311;SDS011;30041;48.300;16.352;2023-08-06T07:40:44;2.55;;;1.10;;
43311;SDS011;30041;48.300;16.352;2023-08-06T07:43:10;3.67;;;1.08;;
43311;SDS011;30041;48.300;16.352;2023-08-06T07:45:35;2.75;;;1.10;;
43311;SDS011;30041;48.300;16.352;2023-08-06T07:48:01;3.33;;;0.90;;
43311;SDS011;30041;48.300;16.352;2023-08-06T07:50:27;3.35;;;0.88;;
43311;SDS011;30041;48.300;16.352;2023-08-06T07:52:52;2.03;;;1.00;;
43311;SDS011;30041;48.300;16.352;2023-08-06T07:55:18;4.45;;;1.20;;
43311;SDS011;30041;48.300;16.352;2023-08-06T07:57:43;3.45;;;1.00;;
43311;SDS011;30041;48.300;16.352;2023-08-06T08:00:09;3.17;;;0.95;;
43311;SDS011;30041;48.300;16.352;2023-08-06T08:02:34;5.00;;;1.02;;
43311;SDS011;30041;48.300;16.352;2023-08-06T08:05:00;7.50;;;1.30;;
43311;SDS011;30041;48.300;16.352;2023-08-06T08:07:26;3.20;;;0.93;;
43311;SDS011;30041;48.300;16.352;2023-08-06T08:09:51;4.75;;;1.10;;
43311;SDS011;30041;48.300;16.352;2023-08-06T08:12:16;4.65;;;1.20;;
43311;SDS011;30041;48.300;16.352;2023-08-06T08:14:42;5.00;;;1.20;;
43311;SDS011;30041;48.300;16.352;2023-08-06T08:17:07;2.60;;;1.02;;
43311;SDS011;30041;48.300;16.352;2023-08-06T08:19:33;4.00;;;1.20;;
43311;SDS011;30041;48.300;16.352;2023-08-06T08:21:58;3.50;;;1.00;;
43311;SDS011;30041;48.300;16.352;2023-08-06T08:24:25;3.90;;;1.40;;
43311;SDS011;30041;48.300;16.352;2023-08-06T08:26:51;6.20;;;1.20;;
43311;SDS011;30041;48.300;16.352;2023-08-06T08:29:17;1.88;;;1.17;;
43311;SDS011;30041;48.300;16.352;2023-08-06T08:31:44;4.47;;;1.08;;
43311;SDS011;30041;48.300;16.352;2023-08-06T08:34:10;2.42;;;1.02;;
43311;SDS011;30041;48.300;16.352;2023-08-06T08:36:35;2.65;;;1.17;;
43311;SDS011;30041;48.300;16.352;2023-08-06T08:39:01;3.47;;;1.10;;
43311;SDS011;30041;48.300;16.352;2023-08-06T08:41:29;2.15;;;1.10;;
43311;SDS011;30041;48.300;16.352;2023-08-06T08:43:56;2.17;;;1.00;;
43311;SDS011;30041;48.300;16.352;2023-08-06T08:46:24;2.80;;;1.20;;
43311;SDS011;30041;48.300;16.352;2023-08-06T08:48:52;2.95;;;1.00;;
43311;SDS011;30041;48.300;16.352;2023-08-06T08:51:19;2.38;;;1.10;;
43311;SDS011;30041;48.300;16.352;2023-08-06T08:53:46;1.13;;;0.93;;
43311;SDS011;30041;48.300;16.352;2023-08-06T08:56:14;2.35;;;1.00;;
43311;SDS011;30041;48.300;16.352;2023-08-06T08:58:39;1.38;;;0.90;;
43311;SDS011;30041;48.300;16.352;2023-08-06T09:01:05;1.95;;;0.90;;
43311;SDS011;30041;48.300;16.352;2023-08-06T09:03:32;1.23;;;0.95;;
43311;SDS011;30041;48.300;16.352;2023-08-06T09:05:59;2.67;;;1.00;;
43311;SDS011;30041;48.300;16.352;2023-08-06T09:08:27;2.00;;;0.93;;
43311;SDS011;30041;48.300;16.352;2023-08-06T09:11:00;2.78;;;1.00;;
43311;SDS011;30041;48.300;16.352;2023-08-06T09:13:27;1.42;;;0.98;;
43311;SDS011;30041;48.300;16.352;2023-08-06T09:15:53;2.80;;;1.25;;
43311;SDS011;30041;48.300;16.352;2023-08-06T09:18:25;2.13;;;0.93;;
43311;SDS011;30041;48.300;16.352;2023-08-06T09:23:20;2.10;;;1.00;;
43311;SDS011;30041;48.300;16.352;2023-08-06T09:25:45;2.63;;;1.10;;
43311;SDS011;30041;48.300;16.352;2023-08-06T09:28:12;1.77;;;1.00;;
43311;SDS011;30041;48.300;16.352;2023-08-06T09:30:38;2.00;;;1.00;;
43311;SDS011;30041;48.300;16.352;2023-08-06T09:33:03;1.52;;;1.08;;
43311;SDS011;30041;48.300;16.352;2023-08-06T09:35:32;2.97;;;1.00;;
43311;SDS011;30041;48.300;16.352;2023-08-06T09:38:08;2.00;;;1.20;;
43311;SDS011;30041;48.300;16.352;2023-08-06T09:40:34;2.00;;;0.98;;
43311;SDS011;30041;48.300;16.352;2023-08-06T09:43:00;1.20;;;0.80;;
43311;SDS011;30041;48.300;16.352;2023-08-06T09:45:34;1.40;;;0.90;;
43311;SDS011;30041;48.300;16.352;2023-08-06T09:48:04;1.70;;;1.10;;
43311;SDS011;30041;48.300;16.352;2023-08-06T09:50:32;1.92;;;1.00;;
43311;SDS011;30041;48.300;16.352;2023-08-06T09:53:01;1.50;;;0.95;;
43311;SDS011;30041;48.300;16.352;2023-08-06T09:55:29;1.25;;;0.88;;
43311;SDS011;30041;48.300;16.352;2023-08-06T09:57:54;1.70;;;1.10;;
43311;SDS011;30041;48.300;16.352;2023-08-06T10:00:20;1.67;;;0.80;;
43311;SDS011;30041;48.300;16.352;2023-08-06T10:02:46;2.50;;;1.00;;
43311;SDS011;30041;48.300;16.352;2023-08-06T10:05:12;1.60;;;1.00;;
43311;SDS011;30041;48.300;16.352;2023-08-06T10:07:38;2.78;;;1.08;;
43311;SDS011;30041;48.300;16.352;2023-08-06T10:10:04;1.73;;;1.08;;
43311;SDS011;30041;48.300;16.352;2023-08-06T10:12:32;2.20;;;1.17;;
43311;SDS011;30041;48.300;16.352;2023-08-06T10:14:59;1.25;;;0.90;;
43311;SDS011;30041;48.300;16.352;2023-08-06T10:17:29;1.25;;;0.90;;
43311;SDS011;30041;48.300;16.352;2023-08-06T10:19:57;1.23;;;0.88;;
43311;SDS011;30041;48.300;16.352;2023-08-06T10:22:24;2.00;;;0.95;;
43311;SDS011;30041;48.300;16.352;2023-08-06T10:24:51;1.40;;;1.05;;
43311;SDS011;30041;48.300;16.352;2023-08-06T10:30:25;0.98;;;0.88;;
43311;SDS011;30041;48.300;16.352;2023-08-06T10:32:57;1.30;;;0.90;;
43311;SDS011;30041;48.300;16.352;2023-08-06T10:38:12;1.70;;;1.00;;
43311;SDS011;30041;48.300;16.352;2023-08-06T10:43:47;1.45;;;0.90;;
43311;SDS011;30041;48.300;16.352;2023-08-06T10:46:09;2.38;;;0.90;;
43311;SDS011;30041;48.300;16.352;2023-08-06T10:48:39;1.67;;;1.20;;
43311;SDS011;30041;48.300;16.352;2023-08-06T10:51:10;1.30;;;0.70;;
43311;SDS011;30041;48.300;16.352;2023-08-06T10:53:37;1.20;;;0.80;;
43311;SDS011;30041;48.300;16.352;2023-08-06T10:56:13;2.15;;;1.05;;
43311;SDS011;30041;48.300;16.352;2023-08-06T10:58:38;1.23;;;0.85;;
43311;SDS011;30041;48.300;16.352;2023-08-06T11:01:04;1.35;;;0.80;;
43311;SDS011;30041;48.300;16.352;2023-08-06T11:03:30;1.70;;;1.00;;
43311;SDS011;30041;48.300;16.352;2023-08-06T11:05:56;1.23;;;0.82;;
43311;SDS011;30041;48.300;16.352;2023-08-06T11:08:29;4.25;;;0.82;;
43311;SDS011;30041;48.300;16.352;2023-08-06T11:11:11;2.17;;;1.05;;
43311;SDS011;30041;48.300;16.352;2023-08-06T11:13:37;3.47;;;1.00;;
43311;SDS011;30041;48.300;16.352;2023-08-06T11:16:03;2.15;;;0.90;;
43311;SDS011;30041;48.300;16.352;2023-08-06T11:18:31;3.58;;;0.95;;
43311;SDS011;30041;48.300;16.352;2023-08-06T11:21:00;1.67;;;0.93;;
43311;SDS011;30041;48.300;16.352;2023-08-06T11:23:27;2.10;;;0.80;;
43311;SDS011;30041;48.300;16.352;2023-08-06T11:25:53;3.33;;;1.10;;
43311;SDS011;30041;48.300;16.352;2023-08-06T11:28:19;2.75;;;1.05;;
43311;SDS011;30041;48.300;16.352;2023-08-06T11:30:45;1.52;;;0.90;;
43311;SDS011;30041;48.300;16.352;2023-08-06T11:33:11;4.45;;;1.00;;
43311;SDS011;30041;48.300;16.352;2023-08-06T11:35:37;3.35;;;1.20;;
43311;SDS011;30041;48.300;16.352;2023-08-06T11:38:02;2.50;;;0.90;;
43311;SDS011;30041;48.300;16.352;2023-08-06T11:40:28;3.92;;;0.68;;
43311;SDS011;30041;48.300;16.352;2023-08-06T11:42:55;2.38;;;0.80;;
43311;SDS011;30041;48.300;16.352;2023-08-06T11:45:24;5.07;;;1.40;;
43311;SDS011;30041;48.300;16.352;2023-08-06T11:47:50;3.45;;;1.30;;
43311;SDS011;30041;48.300;16.352;2023-08-06T11:50:27;3.00;;;1.10;;
43311;SDS011;30041;48.300;16.352;2023-08-06T11:52:59;4.57;;;1.20;;
43311;SDS011;30041;48.300;16.352;2023-08-06T11:55:25;3.40;;;1.30;;
43311;SDS011;30041;48.300;16.352;2023-08-06T11:57:52;4.07;;;1.40;;
43311;SDS011;30041;48.300;16.352;2023-08-06T12:00:18;4.22;;;1.40;;
43311;SDS011;30041;48.300;16.352;2023-08-06T12:02:45;2.65;;;1.17;;
43311;SDS011;30041;48.300;16.352;2023-08-06T12:05:15;5.50;;;1.40;;
43311;SDS011;30041;48.300;16.352;2023-08-06T12:07:45;3.05;;;1.23;;
43311;SDS011;30041;48.300;16.352;2023-08-06T12:10:13;3.95;;;1.50;;
43311;SDS011;30041;48.300;16.352;2023-08-06T12:12:39;4.78;;;1.50;;
43311;SDS011;30041;48.300;16.352;2023-08-06T12:15:05;2.60;;;1.20;;
43311;SDS011;30041;48.300;16.352;2023-08-06T12:17:31;6.07;;;1.42;;
43311;SDS011;30041;48.300;16.352;2023-08-06T12:19:57;3.33;;;1.33;;
43311;SDS011;30041;48.300;16.352;2023-08-06T12:22:25;3.58;;;1.33;;
43311;SDS011;30041;48.300;16.352;2023-08-06T12:24:51;3.58;;;1.40;;
43311;SDS011;30041;48.300;16.352;2023-08-06T12:27:17;2.33;;;1.48;;
43311;SDS011;30041;48.300;16.352;2023-08-06T12:29:43;1.95;;;1.20;;
43311;SDS011;30041;48.300;16.352;2023-08-06T12:32:10;3.58;;;1.40;;
43311;SDS011;30041;48.300;16.352;2023-08-06T12:34:37;4.00;;;1.48;;
43311;SDS011;30041;48.300;16.352;2023-08-06T12:37:03;2.17;;;1.23;;
43311;SDS011;30041;48.300;16.352;2023-08-06T12:39:28;2.92;;;1.58;;
43311;SDS011;30041;48.300;16.352;2023-08-06T12:41:54;2.45;;;1.17;;
43311;SDS011;30041;48.300;16.352;2023-08-06T12:44:20;2.58;;;1.20;;
43311;SDS011;30041;48.300;16.352;2023-08-06T12:46:45;3.90;;;1.20;;
43311;SDS011;30041;48.300;16.352;2023-08-06T12:49:11;3.47;;;1.42;;
43311;SDS011;30041;48.300;16.352;2023-08-06T12:51:36;3.90;;;1.10;;
43311;SDS011;30041;48.300;16.352;2023-08-06T12:54:02;3.03;;;1.15;;
43311;SDS011;30041;48.300;16.352;2023-08-06T12:56:27;5.32;;;1.30;;
43311;SDS011;30041;48.300;16.352;2023-08-06T12:58:53;2.08;;;1.20;;
43311;SDS011;30041;48.300;16.352;2023-08-06T13:01:18;2.42;;;1.38;;
43311;SDS011;30041;48.300;16.352;2023-08-06T13:03:44;1.77;;;1.10;;
43311;SDS011;30041;48.300;16.352;2023-08-06T13:06:09;2.67;;;1.20;;
43311;SDS011;30041;48.300;16.352;2023-08-06T13:08:36;2.03;;;1.30;;
43311;SDS011;30041;48.300;16.352;2023-08-06T13:11:01;4.00;;;1.30;;
43311;SDS011;30041;48.300;16.352;2023-08-06T13:13:27;3.63;;;1.30;;
43311;SDS011;30041;48.300;16.352;2023-08-06T13:15:52;2.35;;;1.23;;
43311;SDS011;30041;48.300;16.352;2023-08-06T13:18:18;3.05;;;1.30;;
43311;SDS011;30041;48.300;16.352;2023-08-06T13:20:43;3.33;;;1.42;;
43311;SDS011;30041;48.300;16.352;2023-08-06T13:23:09;3.42;;;1.35;;
43311;SDS011;30041;48.300;16.352;2023-08-06T13:25:34;4.03;;;1.23;;
43311;SDS011;30041;48.300;16.352;2023-08-06T13:28:00;4.75;;;1.60;;
43311;SDS011;30041;48.300;16.352;2023-08-06T13:30:26;4.18;;;1.17;;
43311;SDS011;30041;48.300;16.352;2023-08-06T13:32:51;4.82;;;1.20;;
43311;SDS011;30041;48.300;16.352;2023-08-06T13:35:16;3.58;;;1.30;;
43311;SDS011;30041;48.300;16.352;2023-08-06T13:37:42;2.15;;;1.20;;
43311;SDS011;30041;48.300;16.352;2023-08-06T13:40:07;2.53;;;1.17;;
43311;SDS011;30041;48.300;16.352;2023-08-06T13:42:33;3.15;;;1.30;;
43311;SDS011;30041;48.300;16.352;2023-08-06T13:44:59;4.97;;;1.38;;
43311;SDS011;30041;48.300;16.352;2023-08-06T13:47:24;3.22;;;1.13;;
43311;SDS011;30041;48.300;16.352;2023-08-06T13:49:50;2.70;;;1.20;;
43311;SDS011;30041;48.300;16.352;2023-08-06T13:52:15;2.90;;;1.30;;
43311;SDS011;30041;48.300;16.352;2023-08-06T13:54:40;2.47;;;1.20;;
43311;SDS011;30041;48.300;16.352;2023-08-06T13:57:06;1.73;;;1.02;;
43311;SDS011;30041;48.300;16.352;2023-08-06T13:59:32;2.25;;;1.30;;
43311;SDS011;30041;48.300;16.352;2023-08-06T14:01:57;3.55;;;1.33;;
43311;SDS011;30041;48.300;16.352;2023-08-06T14:04:23;3.47;;;1.30;;
43311;SDS011;30041;48.300;16.352;2023-08-06T14:06:48;2.22;;;1.20;;
43311;SDS011;30041;48.300;16.352;2023-08-06T14:09:14;3.20;;;1.25;;
43311;SDS011;30041;48.300;16.352;2023-08-06T14:11:39;3.17;;;1.65;;
43311;SDS011;30041;48.300;16.352;2023-08-06T14:14:04;1.98;;;1.30;;
43311;SDS011;30041;48.300;16.352;2023-08-06T14:16:30;2.67;;;1.13;;
43311;SDS011;30041;48.300;16.352;2023-08-06T14:18:55;3.28;;;1.48;;
43311;SDS011;30041;48.300;16.352;2023-08-06T14:21:21;2.03;;;1.10;;
43311;SDS011;30041;48.300;16.352;2023-08-06T14:23:46;3.90;;;1.20;;
43311;SDS011;30041;48.300;16.352;2023-08-06T14:26:12;2.92;;;1.42;;
43311;SDS011;30041;48.300;16.352;2023-08-06T14:28:38;4.18;;;1.55;;
43311;SDS011;30041;48.300;16.352;2023-08-06T14:31:03;2.58;;;1.42;;
43311;SDS011;30041;48.300;16.352;2023-08-06T14:33:28;4.15;;;2.00;;
43311;SDS011;30041;48.300;16.352;2023-08-06T14:35:54;4.80;;;1.55;;
43311;SDS011;30041;48.300;16.352;2023-08-06T14:38:20;4.72;;;1.95;;
43311;SDS011;30041;48.300;16.352;2023-08-06T14:40:45;11.23;;;1.77;;
43311;SDS011;30041;48.300;16.352;2023-08-06T14:43:11;4.57;;;1.77;;
43311;SDS011;30041;48.300;16.352;2023-08-06T14:45:39;13.80;;;2.00;;